Time;durP1;ratioP1;P1;durP2;ratioP2;P2;SDS_P1;SDS_P2;PMS_P1;PMS_P2;Temp;Humidity;BMP_temperature;BMP_pressure;BME280_temperature;BME280_humidity;BME280_pressure;Samples;Min_cycle;Max_cycle;Signal;HPM_P1;HPM_P2
2021/05/01 00:00:57;;;;;;;26.92;17.50;;;9.70;99.90;;;;;;4970451;28;20030;-69
2021/05/01 00:03:22;;;;;;;23.92;19.33;;;9.70;99.90;;;;;;4952125;28;20086;-70
2021/05/01 00:05:48;;;;;;;28.00;20.00;;;9.70;99.90;;;;;;4969683;28;20429;-69
2021/05/01 00:08:14;;;;;;;27.17;20.45;;;9.40;99.90;;;;;;4952897;28;20039;-71
2021/05/01 00:10:39;;;;;;;30.45;20.52;;;9.50;99.90;;;;;;4954110;28;20026;-69
2021/05/01 00:13:05;;;;;;;30.25;23.27;;;9.50;99.90;;;;;;4952606;28;20046;-75
2021/05/01 00:15:31;;;;;;;28.10;21.23;;;9.60;99.90;;;;;;4970540;28;20149;-71
2021/05/01 00:17:57;;;;;;;26.30;20.10;;;9.50;99.90;;;;;;4970524;28;20023;-68
2021/05/01 00:20:23;;;;;;;31.15;20.88;;;9.50;99.90;;;;;;4969730;28;20034;-69
2021/05/01 00:22:48;;;;;;;27.10;19.98;;;9.50;99.90;;;;;;4970752;28;20077;-70
2021/05/01 00:25:14;;;;;;;30.58;21.92;;;9.50;99.90;;;;;;4976276;28;20026;-67
2021/05/01 00:27:42;;;;;;;28.85;22.23;;;9.40;99.90;;;;;;4953700;28;20066;-69
2021/05/01 00:30:08;;;;;;;32.20;23.23;;;9.50;99.90;;;;;;4952690;28;20034;-69
2021/05/01 00:32:34;;;;;;;30.95;22.55;;;9.40;99.90;;;;;;4971534;28;20109;-69
2021/05/01 00:35:01;;;;;;;29.92;21.30;;;9.40;99.90;;;;;;4953204;28;20027;-70
2021/05/01 00:37:26;;;;;;;34.63;23.50;;;9.40;99.90;;;;;;4970121;28;20452;-68
2021/05/01 00:39:52;;;;;;;29.85;23.65;;;9.20;99.90;;;;;;4953325;28;20453;-70
2021/05/01 00:42:18;;;;;;;33.78;23.27;;;9.20;99.90;;;;;;4972768;28;20046;-70
2021/05/01 00:44:43;;;;;;;34.55;23.00;;;9.10;99.90;;;;;;4973312;28;20058;-72
2021/05/01 00:47:09;;;;;;;32.28;24.48;;;9.10;99.90;;;;;;4972130;28;20390;-70
2021/05/01 00:49:34;;;;;;;30.65;23.77;;;9.20;99.90;;;;;;4972966;28;20106;-70
2021/05/01 00:52:00;;;;;;;33.30;24.95;;;9.20;99.90;;;;;;4972231;28;20027;-70
2021/05/01 00:54:26;;;;;;;32.28;23.63;;;9.20;99.90;;;;;;4952847;28;20086;-70
2021/05/01 00:56:52;;;;;;;33.15;23.40;;;9.20;99.90;;;;;;4970810;28;20365;-69
2021/05/01 00:59:17;;;;;;;31.63;23.88;;;9.30;99.90;;;;;;4970321;28;20461;-70
2021/05/01 01:01:52;;;;;;;32.20;24.60;;;9.30;99.90;;;;;;4971250;28;20026;-69
2021/05/01 01:04:18;;;;;;;35.35;26.75;;;9.30;99.90;;;;;;4970950;28;20039;-69
2021/05/01 01:06:45;;;;;;;33.33;23.65;;;9.20;99.90;;;;;;4971382;28;20085;-69
2021/05/01 01:09:11;;;;;;;33.47;24.77;;;9.10;99.90;;;;;;4970449;28;20062;-70
2021/05/01 01:11:37;;;;;;;35.60;25.65;;;9.10;99.90;;;;;;4970823;28;20082;-69
2021/05/01 01:14:05;;;;;;;33.97;24.40;;;9.00;99.90;;;;;;4953164;28;20034;-69
2021/05/01 01:16:31;;;;;;;36.13;25.30;;;9.10;99.90;;;;;;4953693;28;20050;-70
2021/05/01 01:18:57;;;;;;;39.40;27.05;;;9.00;99.90;;;;;;4974449;28;20030;-70
2021/05/01 01:21:24;;;;;;;36.40;26.50;;;8.90;99.90;;;;;;4956222;28;20165;-70
2021/05/01 01:23:49;;;;;;;33.80;25.23;;;8.90;99.90;;;;;;4956683;28;20031;-70
2021/05/01 01:26:15;;;;;;;36.47;25.90;;;9.00;99.90;;;;;;4973400;28;20041;-71
2021/05/01 01:28:41;;;;;;;37.22;24.13;;;9.10;99.90;;;;;;4973963;28;20381;-70
2021/05/01 01:31:07;;;;;;;34.13;25.90;;;9.00;99.90;;;;;;4956660;28;20027;-70
2021/05/01 01:33:33;;;;;;;32.00;24.05;;;8.90;99.90;;;;;;4973929;28;20035;-70
2021/05/01 01:35:58;;;;;;;39.97;24.90;;;9.10;99.90;;;;;;4956464;28;20042;-69
2021/05/01 01:38:24;;;;;;;42.55;25.27;;;9.00;99.90;;;;;;4956054;28;20027;-69
2021/05/01 01:40:49;;;;;;;32.20;25.15;;;9.10;99.90;;;;;;4973639;28;20050;-71
2021/05/01 01:43:15;;;;;;;35.60;25.95;;;9.10;99.90;;;;;;4973249;28;20082;-70
2021/05/01 01:45:41;;;;;;;33.05;25.50;;;9.00;99.90;;;;;;4952464;29;20099;-70
2021/05/01 01:48:07;;;;;;;35.83;26.70;;;8.90;99.90;;;;;;4953120;29;20566;-70
2021/05/01 01:50:33;;;;;;;36.03;26.77;;;8.90;99.90;;;;;;4952458;29;20069;-70
2021/05/01 01:52:59;;;;;;;38.75;27.92;;;8.80;99.90;;;;;;4953314;29;20062;-70
2021/05/01 01:55:25;;;;;;;37.22;27.77;;;8.70;99.90;;;;;;4953924;28;20042;-69
2021/05/01 01:57:51;;;;;;;41.42;27.92;;;8.80;99.90;;;;;;4954338;28;20031;-69
2021/05/01 02:00:24;;;;;;;37.53;27.08;;;8.70;99.90;;;;;;4953465;28;20114;-71
2021/05/01 02:02:50;;;;;;;41.10;27.85;;;8.90;99.90;;;;;;4952709;29;20080;-69
2021/05/01 02:05:16;;;;;;;35.70;25.88;;;8.90;99.90;;;;;;4953580;28;20114;-71
2021/05/01 02:07:42;;;;;;;35.30;26.02;;;9.00;99.90;;;;;;4952526;29;20137;-70
2021/05/01 02:10:09;;;;;;;36.38;27.45;;;9.00;99.90;;;;;;4953762;28;20484;-69
2021/05/01 02:12:39;;;;;;;36.80;26.33;;;9.00;99.90;;;;;;4953198;28;20441;-70
2021/05/01 02:15:14;;;;;;;37.40;27.60;;;9.00;99.90;;;;;;4954191;28;20058;-70
2021/05/01 02:17:42;;;;;;;42.78;27.83;;;8.90;99.90;;;;;;4954148;29;20031;-70
2021/05/01 02:20:10;;;;;;;40.58;28.25;;;8.90;99.90;;;;;;4960956;28;20098;-69
2021/05/01 02:22:36;;;;;;;44.13;28.52;;;8.90;99.90;;;;;;4959136;28;20038;-69
2021/05/01 02:25:02;;;;;;;39.92;28.80;;;8.90;99.90;;;;;;4956148;29;20035;-69
2021/05/01 02:27:28;;;;;;;38.58;27.13;;;8.90;99.90;;;;;;4952878;28;20051;-70
2021/05/01 02:29:54;;;;;;;37.83;26.60;;;9.00;99.90;;;;;;4953725;28;20382;-70
2021/05/01 02:32:19;;;;;;;41.10;28.80;;;9.00;99.90;;;;;;4953075;28;20030;-71
2021/05/01 02:34:45;;;;;;;38.88;27.92;;;8.90;99.90;;;;;;4952125;29;20082;-70
2021/05/01 02:37:11;;;;;;;41.20;28.55;;;8.90;99.90;;;;;;4953802;28;20492;-70
2021/05/01 02:39:36;;;;;;;40.25;28.15;;;8.80;99.90;;;;;;4951432;29;20481;-70
2021/05/01 02:42:02;;;;;;;36.58;28.27;;;8.70;99.90;;;;;;4953538;28;20535;-70
2021/05/01 02:44:28;;;;;;;39.72;28.67;;;8.70;99.90;;;;;;4951200;29;20475;-70
2021/05/01 02:46:54;;;;;;;36.42;27.17;;;8.70;99.90;;;;;;4951896;29;20035;-70
2021/05/01 02:49:19;;;;;;;34.58;25.98;;;8.80;99.90;;;;;;4952799;28;20137;-70
2021/05/01 02:51:45;;;;;;;38.10;27.23;;;8.80;99.90;;;;;;4953573;28;20126;-72
2021/05/01 02:54:11;;;;;;;40.00;28.17;;;8.90;99.90;;;;;;4951681;29;20050;-70
2021/05/01 02:56:36;;;;;;;40.08;28.98;;;8.80;99.90;;;;;;4951268;29;20031;-71
2021/05/01 02:59:02;;;;;;;41.53;28.60;;;8.70;99.90;;;;;;4953637;28;20020;-70
2021/05/01 03:01:27;;;;;;;42.90;31.40;;;8.70;99.90;;;;;;4951907;29;20464;-70
2021/05/01 03:03:53;;;;;;;38.60;29.55;;;8.70;99.90;;;;;;4953070;28;20027;-69
2021/05/01 03:06:19;;;;;;;41.13;28.42;;;8.70;99.90;;;;;;4952669;28;20102;-70
2021/05/01 03:08:44;;;;;;;39.17;29.98;;;8.70;99.90;;;;;;4951692;29;20532;-70
2021/05/01 03:11:10;;;;;;;42.33;30.20;;;8.70;99.90;;;;;;4951818;29;20466;-69
2021/05/01 03:13:36;;;;;;;41.97;30.05;;;8.70;99.90;;;;;;4952808;28;20049;-69
2021/05/01 03:16:02;;;;;;;43.20;29.50;;;8.70;99.90;;;;;;4952510;29;20129;-70
2021/05/01 03:18:27;;;;;;;37.47;27.13;;;8.70;99.90;;;;;;4952708;28;20450;-69
2021/05/01 03:20:53;;;;;;;42.17;30.52;;;8.70;99.90;;;;;;4952977;29;20078;-70
2021/05/01 03:23:20;;;;;;;40.78;28.67;;;8.70;99.90;;;;;;4955752;29;20063;-70
2021/05/01 03:25:46;;;;;;;42.75;30.15;;;8.70;99.90;;;;;;4955727;28;20039;-70
2021/05/01 03:28:12;;;;;;;41.88;30.60;;;8.60;99.90;;;;;;4953450;28;20123;-69
2021/05/01 03:30:38;;;;;;;44.92;30.75;;;8.70;99.90;;;;;;4951089;29;20086;-70
2021/05/01 03:33:03;;;;;;;45.00;30.35;;;8.70;99.90;;;;;;4951411;29;20027;-69
2021/05/01 03:35:29;;;;;;;43.97;29.60;;;8.70;99.90;;;;;;4952619;28;20429;-70
2021/05/01 03:37:54;;;;;;;39.13;29.08;;;8.70;99.90;;;;;;4951716;29;20038;-69
2021/05/01 03:40:21;;;;;;;42.17;29.90;;;8.70;99.90;;;;;;4949711;28;20028;-71
2021/05/01 03:42:48;;;;;;;45.97;30.52;;;8.80;99.90;;;;;;4950876;29;20132;-70
2021/05/01 03:45:14;;;;;;;41.33;29.05;;;8.70;99.90;;;;;;4968234;28;20126;-70
2021/05/01 03:47:40;;;;;;;46.05;30.63;;;8.70;99.90;;;;;;4955928;28;20035;-70
2021/05/01 03:50:10;;;;;;;40.17;29.40;;;8.70;99.90;;;;;;4955343;28;20117;-70
2021/05/01 03:52:35;;;;;;;40.45;29.38;;;8.80;99.90;;;;;;4971836;28;20141;-70
2021/05/01 03:55:01;;;;;;;40.70;30.02;;;8.80;99.90;;;;;;4971563;28;20540;-70
2021/05/01 03:57:27;;;;;;;43.50;30.58;;;8.80;99.90;;;;;;4953233;28;20121;-69
2021/05/01 03:59:53;;;;;;;38.90;28.23;;;8.80;99.90;;;;;;4971061;28;20106;-70
2021/05/01 04:02:19;;;;;;;42.08;29.27;;;8.80;99.90;;;;;;4970684;28;20117;-76
2021/05/01 04:04:44;;;;;;;42.45;30.15;;;8.80;99.90;;;;;;4937583;28;20062;-69
2021/05/01 04:07:10;;;;;;;44.72;30.63;;;8.80;99.90;;;;;;4953568;28;20050;-70
2021/05/01 04:09:35;;;;;;;47.33;32.83;;;8.80;99.90;;;;;;4952591;28;20038;-70
2021/05/01 04:12:01;;;;;;;40.72;29.42;;;8.70;99.90;;;;;;4970892;28;20338;-69
2021/05/01 04:14:27;;;;;;;40.67;29.95;;;8.70;99.90;;;;;;4970695;28;20034;-70
2021/05/01 04:16:52;;;;;;;42.90;31.08;;;8.70;99.90;;;;;;4953557;28;20039;-70
2021/05/01 04:19:18;;;;;;;43.65;31.00;;;8.60;99.90;;;;;;4971000;28;20046;-71
2021/05/01 04:21:43;;;;;;;41.60;29.13;;;8.60;99.90;;;;;;4952821;28;20113;-69
2021/05/01 04:24:09;;;;;;;41.25;30.35;;;8.60;99.90;;;;;;4953175;28;20078;-70
2021/05/01 04:26:35;;;;;;;42.15;29.48;;;8.60;99.90;;;;;;4970302;28;20042;-69
2021/05/01 04:29:00;;;;;;;40.40;28.83;;;8.40;99.90;;;;;;4970683;28;20039;-70
2021/05/01 04:31:27;;;;;;;43.08;29.05;;;8.60;99.90;;;;;;4970308;28;20057;-70
2021/05/01 04:33:52;;;;;;;41.05;28.42;;;8.50;99.90;;;;;;4953186;28;20441;-70
2021/05/01 04:36:18;;;;;;;40.03;28.63;;;8.50;99.90;;;;;;4970470;28;20039;-71
2021/05/01 04:38:43;;;;;;;45.10;29.65;;;8.60;99.90;;;;;;4952654;28;20461;-71
2021/05/01 04:41:09;;;;;;;40.00;27.77;;;8.50;99.90;;;;;;4953277;28;20030;-70
2021/05/01 04:43:35;;;;;;;37.38;27.80;;;8.50;99.90;;;;;;4952538;28;20027;-70
2021/05/01 04:46:00;;;;;;;38.80;28.38;;;8.60;99.90;;;;;;4970709;28;20034;-70
2021/05/01 04:48:29;;;;;;;38.00;28.20;;;8.50;99.90;;;;;;4952664;28;20114;-70
2021/05/01 04:50:54;;;;;;;38.17;28.42;;;8.50;99.90;;;;;;4971786;28;20122;-70
2021/05/01 04:53:20;;;;;;;37.40;28.50;;;8.60;99.90;;;;;;4974827;28;20133;-70
2021/05/01 04:55:46;;;;;;;37.60;28.33;;;8.50;99.90;;;;;;4956534;28;20034;-70
2021/05/01 04:58:12;;;;;;;40.10;28.08;;;8.50;99.90;;;;;;4941185;28;20031;-70
2021/05/01 05:00:38;;;;;;;39.33;27.48;;;8.50;99.90;;;;;;4973752;28;20057;-70
2021/05/01 05:03:03;;;;;;;34.67;26.00;;;8.40;99.90;;;;;;4956951;28;20073;-70
2021/05/01 05:05:29;;;;;;;36.05;25.55;;;8.60;99.90;;;;;;4973745;28;20184;-71
2021/05/01 05:07:55;;;;;;;35.88;26.23;;;8.50;99.90;;;;;;4974381;28;20042;-69
2021/05/01 05:10:20;;;;;;;33.83;24.38;;;8.50;99.90;;;;;;4974143;28;20023;-70
2021/05/01 05:12:47;;;;;;;39.42;26.90;;;8.60;99.90;;;;;;4973884;28;20069;-71
2021/05/01 05:15:13;;;;;;;31.42;23.98;;;8.70;99.90;;;;;;4956771;28;20121;-70
2021/05/01 05:17:39;;;;;;;35.92;25.80;;;8.80;99.90;;;;;;4956059;28;20078;-71
2021/05/01 05:20:06;;;;;;;33.85;25.35;;;8.80;99.90;;;;;;4973918;28;20033;-71
2021/05/01 05:22:31;;;;;;;34.65;24.23;;;8.80;99.90;;;;;;4973131;28;20089;-70
2021/05/01 05:24:57;;;;;;;33.10;24.42;;;9.00;99.90;;;;;;4956314;28;20137;-69
2021/05/01 05:27:23;;;;;;;33.28;23.98;;;9.00;99.90;;;;;;4973897;28;20045;-69
2021/05/01 05:29:52;;;;;;;30.48;24.42;;;9.00;99.90;;;;;;4955994;28;20481;-70
2021/05/01 05:32:19;;;;;;;30.40;23.73;;;9.10;99.90;;;;;;4974031;28;20091;-70
2021/05/01 05:34:45;;;;;;;29.45;22.73;;;9.20;99.90;;;;;;4973262;28;20448;-69
2021/05/01 05:37:12;;;;;;;27.42;21.25;;;9.10;99.90;;;;;;4973934;28;20057;-69
2021/05/01 05:39:42;;;;;;;30.23;20.90;;;9.10;99.90;;;;;;4955576;28;20031;-70
2021/05/01 05:42:09;;;;;;;28.35;20.58;;;9.20;99.90;;;;;;4974374;28;20027;-70
2021/05/01 05:44:34;;;;;;;29.33;21.67;;;9.30;99.90;;;;;;4955249;28;20102;-71
2021/05/01 05:47:01;;;;;;;30.98;19.55;;;9.30;99.90;;;;;;4973419;28;20074;-70
2021/05/01 05:49:27;;;;;;;30.70;22.33;;;9.30;99.90;;;;;;4973115;28;20038;-71
2021/05/01 05:51:52;;;;;;;27.20;20.70;;;9.40;99.90;;;;;;4956039;28;20122;-69
2021/05/01 05:54:18;;;;;;;29.85;22.20;;;9.60;99.90;;;;;;4956144;28;20039;-70
2021/05/01 05:56:44;;;;;;;31.67;23.13;;;9.50;99.90;;;;;;4972771;28;20093;-71
2021/05/01 05:59:09;;;;;;;32.05;24.77;;;9.60;99.90;;;;;;4973239;28;20046;-70
2021/05/01 06:01:39;;;;;;;31.38;24.05;;;9.50;99.90;;;;;;4972937;28;20042;-70
2021/05/01 06:04:09;;;;;;;37.30;25.83;;;9.50;99.90;;;;;;4954727;28;20023;-70
2021/05/01 06:06:42;;;;;;;30.38;22.70;;;9.50;99.90;;;;;;4955270;28;20132;-71
2021/05/01 06:09:07;;;;;;;29.65;23.83;;;9.60;99.90;;;;;;4955548;28;20034;-71
2021/05/01 06:11:33;;;;;;;35.22;23.77;;;9.50;99.90;;;;;;4954955;28;20023;-70
2021/05/01 06:14:03;;;;;;;33.00;24.80;;;9.50;99.90;;;;;;4955418;28;20031;-70
2021/05/01 06:16:30;;;;;;;34.00;25.60;;;9.60;99.90;;;;;;4972385;28;20185;-71
2021/05/01 06:18:56;;;;;;;35.25;26.63;;;9.80;99.90;;;;;;4955395;28;20031;-70
2021/05/01 06:21:22;;;;;;;34.10;23.35;;;9.70;99.90;;;;;;4955534;28;20034;-70
2021/05/01 06:23:48;;;;;;;34.40;25.85;;;9.70;99.90;;;;;;4954718;28;20121;-70
2021/05/01 06:26:13;;;;;;;31.60;25.25;;;9.70;99.90;;;;;;4972848;28;20113;-69
2021/05/01 06:28:39;;;;;;;36.17;25.42;;;9.90;99.90;;;;;;4954642;28;20074;-70
2021/05/01 06:31:07;;;;;;;32.42;24.10;;;10.20;99.90;;;;;;4972637;28;20319;-70
2021/05/01 06:33:37;;;;;;;35.33;23.92;;;10.20;99.90;;;;;;4972249;28;20526;-70
2021/05/01 06:36:03;;;;;;;30.77;22.63;;;10.10;99.90;;;;;;4955222;28;20031;-70
2021/05/01 06:38:31;;;;;;;31.77;23.50;;;10.60;99.90;;;;;;4954665;28;20428;-72
2021/05/01 06:41:03;;;;;;;29.80;23.15;;;10.70;99.90;;;;;;4955016;28;20038;-69
2021/05/01 06:44:09;;;;;;;31.67;22.60;;;10.60;99.90;;;;;;4954541;28;20342;-79
2021/05/01 06:46:40;;;;;;;26.73;21.20;;;10.80;99.90;;;;;;4950974;28;20442;-71
2021/05/01 06:49:11;;;;;;;30.17;22.17;;;10.50;99.90;;;;;;4972660;28;20031;-70
2021/05/01 06:51:39;;;;;;;28.58;21.92;;;10.40;99.90;;;;;;4972065;28;20031;-69
2021/05/01 06:54:08;;;;;;;29.15;21.77;;;10.40;99.90;;;;;;4954826;28;20121;-70
2021/05/01 06:56:39;;;;;;;29.48;21.58;;;10.70;99.90;;;;;;4971476;28;20457;-69
2021/05/01 06:59:07;;;;;;;26.15;20.13;;;10.80;99.90;;;;;;4954856;28;20414;-69
2021/05/01 07:01:33;;;;;;;30.55;21.55;;;11.10;99.90;;;;;;4953735;28;20031;-71
2021/05/01 07:04:01;;;;;;;25.30;20.30;;;11.10;99.90;;;;;;4955188;28;20422;-70
2021/05/01 07:06:27;;;;;;;27.35;19.70;;;11.00;99.90;;;;;;4954568;28;20042;-69
2021/05/01 07:08:53;;;;;;;28.27;19.90;;;11.00;99.90;;;;;;4953986;28;20360;-68
2021/05/01 07:11:18;;;;;;;26.20;18.08;;;10.90;99.90;;;;;;4955695;28;20126;-69
2021/05/01 07:13:48;;;;;;;25.42;19.00;;;11.10;99.90;;;;;;4954185;28;20178;-70
2021/05/01 07:16:14;;;;;;;25.35;19.02;;;11.40;99.90;;;;;;4954412;28;20046;-69
2021/05/01 07:18:44;;;;;;;23.60;18.52;;;11.60;99.90;;;;;;4971433;28;20034;-69
2021/05/01 07:21:11;;;;;;;23.90;18.83;;;11.90;99.60;;;;;;4956017;28;20127;-70
2021/05/01 07:23:37;;;;;;;22.50;18.80;;;12.10;99.00;;;;;;4971961;28;20027;-68
2021/05/01 07:26:05;;;;;;;22.45;17.33;;;12.50;98.40;;;;;;4972292;28;20109;-70
2021/05/01 07:28:36;;;;;;;24.52;16.63;;;12.70;98.00;;;;;;4972312;28;20026;-69
2021/05/01 07:31:06;;;;;;;24.38;18.33;;;13.00;97.70;;;;;;4954465;28;20113;-68
2021/05/01 07:33:50;;;;;;;22.35;16.05;;;13.40;96.50;;;;;;4953982;28;20432;-77
2021/05/01 07:36:39;;;;;;;22.63;17.40;;;13.60;99.90;;;;;;4954151;28;20066;-60
2021/05/01 07:39:09;;;;;;;22.48;17.77;;;13.80;95.80;;;;;;4971634;28;20031;-60
2021/05/01 07:41:40;;;;;;;21.45;16.67;;;14.00;95.50;;;;;;4971141;28;20034;-63
2021/05/01 07:44:08;;;;;;;22.52;17.10;;;14.50;95.20;;;;;;4950180;29;20051;-62
2021/05/01 07:46:34;;;;;;;22.17;17.48;;;14.90;94.40;;;;;;4950138;29;20046;-61
2021/05/01 07:49:00;;;;;;;21.55;16.38;;;15.20;93.80;;;;;;4951870;28;20087;-61
2021/05/01 07:51:27;;;;;;;21.52;16.98;;;15.30;92.50;;;;;;4951905;28;20031;-69
2021/05/01 07:53:53;;;;;;;20.80;16.48;;;15.60;92.00;;;;;;4949397;28;20046;-68
2021/05/01 07:56:18;;;;;;;24.58;17.55;;;15.70;91.50;;;;;;4951039;28;20438;-68
2021/05/01 07:58:44;;;;;;;23.08;18.73;;;15.70;90.60;;;;;;4949196;29;20027;-69
2021/05/01 08:01:10;;;;;;;28.02;18.70;;;15.50;89.50;;;;;;4950777;28;20106;-68
2021/05/01 08:03:36;;;;;;;21.92;18.70;;;15.30;91.10;;;;;;4948527;29;20042;-69
2021/05/01 08:06:02;;;;;;;25.88;17.38;;;15.60;90.60;;;;;;4948937;29;20176;-68
2021/05/01 08:08:28;;;;;;;22.13;17.35;;;15.90;89.60;;;;;;4951123;28;20046;-68
2021/05/01 08:10:53;;;;;;;22.15;17.75;;;16.10;87.70;;;;;;4948625;29;20038;-68
2021/05/01 08:13:19;;;;;;;27.67;18.25;;;16.10;86.40;;;;;;4950193;28;20085;-71
2021/05/01 08:15:45;;;;;;;18.27;15.55;;;16.10;88.00;;;;;;4948661;29;20028;-68
2021/05/01 08:18:10;;;;;;;25.70;18.15;;;16.30;85.50;;;;;;4950274;28;20050;-68
2021/05/01 08:20:36;;;;;;;22.98;18.00;;;16.20;84.60;;;;;;4949577;28;20023;-68
2021/05/01 08:23:02;;;;;;;21.20;17.58;;;15.90;85.90;;;;;;4948456;29;20035;-67
2021/05/01 08:25:28;;;;;;;21.63;17.90;;;15.70;85.60;;;;;;4949791;28;20031;-69
2021/05/01 08:27:55;;;;;;;24.80;18.65;;;15.50;86.40;;;;;;4948414;29;20434;-69
2021/05/01 08:30:21;;;;;;;21.15;18.00;;;15.60;85.50;;;;;;4948974;29;20043;-68
2021/05/01 08:32:47;;;;;;;21.77;17.70;;;15.70;85.50;;;;;;4948114;29;20023;-68
2021/05/01 08:35:15;;;;;;;27.73;18.42;;;15.20;86.20;;;;;;4950465;28;20039;-68
2021/05/01 08:37:41;;;;;;;23.42;18.05;;;15.40;87.30;;;;;;4948150;29;20036;-68
2021/05/01 08:40:08;;;;;;;27.92;18.70;;;15.60;86.90;;;;;;4950447;28;20027;-75
2021/05/01 08:42:36;;;;;;;20.70;17.30;;;15.90;85.00;;;;;;4947907;29;20027;-69
2021/05/01 08:45:07;;;;;;;27.25;19.83;;;15.60;84.10;;;;;;4948273;29;20059;-68
2021/05/01 08:47:38;;;;;;;20.50;16.77;;;15.90;84.30;;;;;;4948482;29;20216;-75
2021/05/01 08:50:07;;;;;;;23.50;17.88;;;15.90;83.50;;;;;;4949265;29;20338;-69
2021/05/01 08:52:36;;;;;;;21.17;18.02;;;15.90;83.90;;;;;;4949757;28;20114;-71
2021/05/01 08:55:02;;;;;;;21.00;17.95;;;16.00;85.00;;;;;;4948463;29;20031;-69
2021/05/01 08:57:30;;;;;;;21.20;16.10;;;16.10;84.80;;;;;;4950219;28;20090;-70
2021/05/01 08:59:56;;;;;;;21.08;16.75;;;16.50;83.90;;;;;;4948382;29;20032;-68
2021/05/01 09:02:25;;;;;;;21.75;17.35;;;16.70;83.00;;;;;;4950327;28;20038;-70
2021/05/01 09:04:54;;;;;;;20.10;15.85;;;16.70;83.30;;;;;;4948078;29;20349;-68
2021/05/01 09:07:21;;;;;;;21.80;16.63;;;16.80;79.20;;;;;;4929846;29;20032;-68
2021/05/01 09:09:55;;;;;;;19.90;15.70;;;16.80;78.30;;;;;;4931311;29;20481;-68
2021/05/01 09:12:40;;;;;;;16.30;14.30;;;16.80;82.50;;;;;;4930150;29;20170;-68
2021/05/01 09:15:16;;;;;;;18.60;16.10;;;17.20;78.30;;;;;;4931930;29;20422;-68
2021/05/01 09:17:42;;;;;;;16.80;13.43;;;17.20;80.10;;;;;;4930960;29;20039;-70
2021/05/01 09:20:14;;;;;;;17.85;14.15;;;17.30;76.20;;;;;;4931832;29;20108;-68
2021/05/01 09:22:59;;;;;;;18.95;13.15;;;17.40;74.50;;;;;;4929989;29;20110;-69
2021/05/01 09:25:27;;;;;;;17.90;14.95;;;17.20;73.60;;;;;;4931242;29;20415;-69
2021/05/01 09:28:01;;;;;;;21.35;14.43;;;16.60;73.20;;;;;;4929401;29;20388;-67
2021/05/01 09:30:29;;;;;;;17.52;14.63;;;16.20;75.80;;;;;;4931744;29;20067;-68
2021/05/01 09:33:36;;;;;;;19.23;15.15;;;16.40;75.70;;;;;;4928790;29;20094;-67
2021/05/01 09:36:09;;;;;;;19.65;15.38;;;16.20;76.10;;;;;;4925998;29;20036;-68
2021/05/01 09:38:45;;;;;;;20.48;15.60;;;15.40;77.70;;;;;;4932270;29;20115;-76
2021/05/01 09:41:14;;;;;;;19.33;14.95;;;15.40;77.90;;;;;;4932521;29;20031;-70
2021/05/01 09:44:04;;;;;;;20.50;14.55;;;15.20;78.50;;;;;;4934088;29;20032;-70
2021/05/01 09:46:43;;;;;;;17.03;13.97;;;15.20;79.40;;;;;;4953579;29;20043;-69
2021/05/01 09:49:18;;;;;;;19.02;15.27;;;15.40;80.10;;;;;;4936038;28;20134;-68
2021/05/01 09:51:47;;;;;;;19.73;15.35;;;15.50;80.10;;;;;;4935263;29;20125;-68
2021/05/01 09:54:14;;;;;;;21.58;15.95;;;15.30;79.60;;;;;;4942057;28;20054;-68
2021/05/01 09:56:41;;;;;;;22.40;15.50;;;15.10;80.40;;;;;;4952077;28;20066;-68
2021/05/01 09:59:08;;;;;;;22.17;16.48;;;15.30;80.10;;;;;;4971198;28;20410;-68
2021/05/01 10:01:34;;;;;;;19.58;15.55;;;15.00;80.70;;;;;;4954759;28;20034;-68
2021/05/01 10:04:14;;;;;;;19.50;15.98;;;14.60;81.10;;;;;;4953810;28;20944;-69
2021/05/01 10:07:01;;;;;;;22.25;16.48;;;14.50;82.00;;;;;;4971805;28;20081;-74
2021/05/01 10:09:34;;;;;;;23.33;16.13;;;14.60;82.80;;;;;;4965456;28;20042;-70
2021/05/01 10:12:15;;;;;;;20.90;15.20;;;14.60;83.40;;;;;;4953810;28;20133;-68
2021/05/01 10:14:45;;;;;;;20.52;16.15;;;14.70;83.90;;;;;;4937833;28;20167;-72
2021/05/01 10:17:14;;;;;;;18.10;14.73;;;14.60;83.70;;;;;;4954205;28;20034;-69
2021/05/01 10:19:48;;;;;;;21.90;15.77;;;14.90;83.30;;;;;;4972125;28;20434;-75
2021/05/01 10:22:27;;;;;;;23.60;16.95;;;14.90;83.10;;;;;;4954358;28;20030;-69
2021/05/01 10:24:55;;;;;;;21.48;15.88;;;15.30;82.10;;;;;;4953676;28;20464;-68
2021/05/01 10:27:21;;;;;;;18.83;16.67;;;15.10;82.10;;;;;;4954147;28;20050;-69
2021/05/01 10:30:13;;;;;;;18.13;15.10;;;15.00;82.50;;;;;;4970934;28;20031;-69
2021/05/01 10:32:53;;;;;;;18.45;15.02;;;15.30;82.70;;;;;;4951351;28;20037;-76
2021/05/01 10:35:22;;;;;;;19.35;15.95;;;15.10;81.30;;;;;;4971772;28;20038;-69
2021/05/01 10:37:56;;;;;;;19.00;16.02;;;14.80;83.40;;;;;;4970320;28;20038;-69
2021/05/01 10:40:24;;;;;;;24.55;16.50;;;14.80;83.00;;;;;;4971656;28;20540;-69
2021/05/01 10:43:13;;;;;;;19.83;14.73;;;15.10;82.50;;;;;;4970086;28;20043;-69
2021/05/01 10:45:46;;;;;;;20.20;14.55;;;15.40;81.90;;;;;;4967879;28;20055;-74
2021/05/01 10:48:13;;;;;;;18.33;14.90;;;15.70;81.50;;;;;;4971408;28;20058;-70
2021/05/01 10:50:40;;;;;;;22.20;16.63;;;16.00;80.10;;;;;;4971296;28;20061;-72
2021/05/01 10:53:15;;;;;;;20.65;15.57;;;15.90;78.20;;;;;;4970687;28;20102;-70
2021/05/01 10:55:43;;;;;;;19.20;15.32;;;15.90;79.10;;;;;;4953233;28;20038;-75
2021/05/01 10:58:08;;;;;;;18.20;14.15;;;15.60;79.10;;;;;;4970353;28;20031;-69
2021/05/01 11:00:45;;;;;;;20.83;15.45;;;15.70;79.20;;;;;;4970736;28;20342;-69
2021/05/01 11:03:14;;;;;;;17.67;14.40;;;15.40;79.20;;;;;;4953253;28;20078;-68
2021/05/01 11:05:42;;;;;;;19.38;15.63;;;15.60;79.20;;;;;;4970986;28;20210;-76
2021/05/01 11:08:26;;;;;;;17.27;14.00;;;15.60;78.60;;;;;;4951994;28;20042;-68
2021/05/01 11:10:54;;;;;;;19.65;15.55;;;15.70;78.70;;;;;;4970685;28;20029;-70
2021/05/01 11:13:26;;;;;;;17.45;14.90;;;15.70;78.20;;;;;;4970987;28;20031;-50
2021/05/01 11:15:57;;;;;;;23.38;14.98;;;15.70;78.70;;;;;;4969984;28;20023;-69
2021/05/01 11:18:25;;;;;;;26.83;12.98;;;15.90;79.60;;;;;;4953313;28;20058;-61
2021/05/01 11:20:56;;;;;;;16.75;13.18;;;16.10;84.00;;;;;;4969785;28;20176;-69
2021/05/01 11:23:30;;;;;;;17.35;11.63;;;16.00;77.10;;;;;;4953380;28;20063;-68
2021/05/01 11:25:59;;;;;;;20.90;12.82;;;16.10;76.70;;;;;;4970155;28;20031;-69
2021/05/01 11:28:26;;;;;;;15.57;10.80;;;16.10;76.40;;;;;;4970321;28;20514;-67
2021/05/01 11:30:53;;;;;;;13.52;11.05;;;16.20;82.00;;;;;;4951452;28;20084;-68
2021/05/01 11:33:21;;;;;;;17.73;13.60;;;16.60;80.30;;;;;;4969588;28;20029;-68
2021/05/01 11:35:51;;;;;;;18.58;12.23;;;16.70;76.30;;;;;;4952970;28;20120;-68
2021/05/01 11:38:25;;;;;;;12.35;8.70;;;16.90;75.00;;;;;;4971946;28;20033;-47
2021/05/01 11:40:54;;;;;;;16.55;9.00;;;17.40;77.20;;;;;;4969504;28;20173;-47
2021/05/01 11:43:25;;;;;;;12.35;8.07;;;17.40;80.20;;;;;;4952986;28;20138;-46
2021/05/01 11:46:18;;;;;;;13.65;10.23;;;18.00;77.90;;;;;;4968746;28;20115;-50
2021/05/01 11:49:06;;;;;;;16.35;11.70;;;18.40;78.40;;;;;;4952405;28;20038;-77
2021/05/01 11:52:00;;;;;;;17.27;11.45;;;17.80;70.10;;;;;;4949782;28;20031;-66
2021/05/01 11:54:47;;;;;;;13.52;10.35;;;17.30;74.00;;;;;;4963584;28;20081;-66
2021/05/01 11:57:30;;;;;;;14.20;10.52;;;17.50;76.90;;;;;;4965579;28;20212;-67
2021/05/01 11:59:59;;;;;;;13.88;9.52;;;17.50;76.00;;;;;;4951498;28;20389;-66
2021/05/01 12:02:38;;;;;;;13.27;11.13;;;17.50;76.80;;;;;;4970335;28;20365;-66
2021/05/01 12:05:10;;;;;;;12.55;10.63;;;17.50;75.80;;;;;;4970108;28;20106;-68
2021/05/01 12:08:17;;;;;;;10.98;6.85;;;17.50;75.50;;;;;;4955923;28;20042;-45
2021/05/01 12:10:49;;;;;;;15.77;8.30;;;18.00;77.20;;;;;;4968875;28;20043;-59
2021/05/01 12:13:17;;;;;;;16.88;9.25;;;18.50;83.40;;;;;;4950806;28;20031;-53
2021/05/01 12:15:49;;;;;;;11.35;8.98;;;18.70;74.80;;;;;;4952661;28;20027;-47
2021/05/01 12:18:15;;;;;;;15.45;10.95;;;18.60;74.40;;;;;;4952633;28;20549;-47
2021/05/01 12:20:43;;;;;;;17.30;9.80;;;19.00;74.10;;;;;;4953073;28;20136;-49
2021/05/01 12:23:11;;;;;;;18.50;9.35;;;19.30;75.80;;;;;;4953284;28;20035;-49
2021/05/01 12:25:42;;;;;;;16.13;11.15;;;19.30;74.00;;;;;;4969640;28;20174;-51
2021/05/01 12:28:10;;;;;;;12.02;10.13;;;19.60;71.50;;;;;;4969370;28;20066;-50
2021/05/01 12:30:38;;;;;;;14.82;9.70;;;19.60;73.10;;;;;;4952574;28;20042;-52
2021/05/01 12:33:22;;;;;;;17.55;12.02;;;19.80;72.50;;;;;;4969207;28;20054;-59
2021/05/01 12:36:02;;;;;;;14.77;12.85;;;19.90;70.50;;;;;;4969256;28;20035;-74
2021/05/01 12:38:31;;;;;;;15.23;11.95;;;19.40;71.10;;;;;;4952012;28;20027;-66
2021/05/01 12:41:09;;;;;;;15.82;12.95;;;19.00;72.70;;;;;;4972730;28;20071;-67